Time;durP1;ratioP1;P1;durP2;ratioP2;P2;SDS_P1;SDS_P2;PMS_P1;PMS_P2;Temp;Humidity;BMP_temperature;BMP_pressure;BME280_temperature;BME280_humidity;BME280_pressure;Samples;Min_cycle;Max_cycle;Signal;HPM_P1;HPM_P2
2023/03/27 00:01:29;;;;;;;13.77;1.52;;;3.60;82.90;;;;;;4765571;29;90665;-80
2023/03/27 00:03:55;;;;;;;9.90;1.70;;;3.60;81.20;;;;;;4762975;29;87899;-78
2023/03/27 00:19:59;;;;;;;12.98;1.33;;;3.30;81.80;;;;;;4760556;29;87824;-80
2023/03/27 00:22:25;;;;;;;13.35;1.73;;;3.30;82.10;;;;;;4750413;29;89251;-82
2023/03/27 00:24:51;;;;;;;14.35;2.40;;;3.20;82.90;;;;;;4765836;29;91984;-81
2023/03/27 00:27:18;;;;;;;9.88;1.35;;;3.20;82.40;;;;;;4759085;29;88484;-81
2023/03/27 00:29:45;;;;;;;13.05;1.65;;;3.10;82.40;;;;;;4751236;29;87473;-79
2023/03/27 00:56:15;;;;;;;12.00;2.20;;;2.90;86.10;;;;;;4768671;29;91745;-82
2023/03/27 00:58:49;;;;;;;12.38;2.08;;;2.90;86.30;;;;;;4760818;29;87536;-79
2023/03/27 01:01:17;;;;;;;10.40;3.05;;;3.00;87.10;;;;;;4748714;29;89382;-80
2023/03/27 01:03:45;;;;;;;9.07;2.63;;;3.00;86.40;;;;;;4730093;29;90571;-80
2023/03/27 01:06:15;;;;;;;13.45;2.60;;;3.00;86.40;;;;;;4714519;29;90606;-80
2023/03/27 01:08:43;;;;;;;9.55;1.90;;;3.00;89.00;;;;;;4715068;29;87471;-80
2023/03/27 01:11:27;;;;;;;12.52;3.15;;;3.00;87.20;;;;;;4729951;29;87663;-81
2023/03/27 01:13:53;;;;;;;15.18;2.72;;;3.10;86.70;;;;;;4727108;29;93072;-79
2023/03/27 01:23:49;;;;;;;13.77;2.63;;;3.20;86.20;;;;;;4728837;29;87797;-79
2023/03/27 01:26:48;;;;;;;13.98;2.05;;;3.20;86.00;;;;;;4729574;29;90039;-82
2023/03/27 01:29:25;;;;;;;12.05;1.60;;;3.30;86.20;;;;;;4714685;29;91551;-84
2023/03/27 01:32:04;;;;;;;9.00;1.67;;;3.30;86.20;;;;;;4730406;29;87285;-79
2023/03/27 01:51:32;;;;;;;10.10;1.90;;;3.50;86.40;;;;;;4757464;29;94824;-79
2023/03/27 01:54:08;;;;;;;10.70;2.25;;;3.60;87.30;;;;;;4758868;29;88389;-80
2023/03/27 01:56:39;;;;;;;13.25;1.95;;;3.60;88.50;;;;;;4750603;29;87239;-80
2023/03/27 01:59:15;;;;;;;17.75;2.25;;;3.60;87.90;;;;;;4783605;29;89613;-79
2023/03/27 02:01:50;;;;;;;16.15;2.40;;;3.60;88.00;;;;;;4778112;29;89769;-79
2023/03/27 02:04:22;;;;;;;7.43;1.95;;;3.70;87.70;;;;;;4778232;29;90583;-79
2023/03/27 02:30:52;;;;;;;9.90;1.63;;;3.80;88.80;;;;;;4775079;29;87491;-79
2023/03/27 02:33:28;;;;;;;9.45;1.55;;;3.90;88.70;;;;;;4774671;29;87270;-79
2023/03/27 02:36:27;;;;;;;9.38;1.52;;;3.90;88.80;;;;;;4774717;29;89270;-81
2023/03/27 02:39:06;;;;;;;11.50;1.40;;;3.90;88.70;;;;;;4702493;29;88796;-80
2023/03/27 02:41:42;;;;;;;12.27;1.98;;;3.90;89.30;;;;;;4695669;29;90663;-79
2023/03/27 02:44:46;;;;;;;6.50;1.45;;;3.90;89.00;;;;;;4701667;29;88436;-79
2023/03/27 02:50:39;;;;;;;12.80;1.65;;;4.00;88.20;;;;;;4700245;29;87743;-79
2023/03/27 02:53:09;;;;;;;15.75;2.03;;;4.00;88.70;;;;;;4694759;29;90506;-79
2023/03/27 02:55:43;;;;;;;11.32;1.60;;;4.00;89.00;;;;;;4688612;29;87591;-80
2023/03/27 02:58:15;;;;;;;15.50;2.08;;;4.00;88.70;;;;;;4709061;29;89083;-79
2023/03/27 03:00:47;;;;;;;11.43;2.13;;;4.00;88.60;;;;;;4709836;29;90451;-81
2023/03/27 03:03:26;;;;;;;4.72;1.77;;;4.00;88.80;;;;;;4708895;29;91518;-80
2023/03/27 03:05:57;;;;;;;14.23;1.90;;;4.00;89.00;;;;;;4702660;29;87951;-79
2023/03/27 03:08:29;;;;;;;14.82;1.50;;;4.00;89.10;;;;;;4709175;29;88238;-83
2023/03/27 03:11:00;;;;;;;10.55;1.60;;;4.00;89.40;;;;;;4703404;29;89785;-79
2023/03/27 03:13:26;;;;;;;11.98;2.00;;;4.00;89.40;;;;;;4687819;29;91530;-79
2023/03/27 03:15:51;;;;;;;10.55;1.95;;;4.00;89.40;;;;;;4733115;29;87672;-79
2023/03/27 03:18:17;;;;;;;11.20;1.88;;;4.10;89.40;;;;;;4757840;29;88252;-80
2023/03/27 03:20:44;;;;;;;15.35;2.53;;;4.10;89.10;;;;;;4764213;29;91333;-79
2023/03/27 03:23:10;;;;;;;12.13;1.85;;;4.00;88.60;;;;;;4758221;29;88152;-79
2023/03/27 03:25:36;;;;;;;12.23;1.83;;;4.10;88.80;;;;;;4759242;29;87940;-81
2023/03/27 03:28:01;;;;;;;8.13;2.13;;;4.10;89.00;;;;;;4765038;29;89525;-81
2023/03/27 03:30:29;;;;;;;11.68;2.80;;;4.10;89.10;;;;;;4741004;29;91845;-79
2023/03/27 03:32:56;;;;;;;12.10;2.17;;;4.10;88.70;;;;;;4763755;29;90676;-82
2023/03/27 03:45:32;;;;;;;12.45;1.63;;;4.10;89.00;;;;;;4757284;29;87421;-81
2023/03/27 03:47:57;;;;;;;11.90;2.10;;;4.20;88.80;;;;;;4742666;29;87846;-79
2023/03/27 03:50:23;;;;;;;17.63;3.00;;;4.20;89.20;;;;;;4762246;29;89162;-80
2023/03/27 03:52:49;;;;;;;14.85;2.80;;;4.20;89.30;;;;;;4755910;29;88644;-80
2023/03/27 03:55:15;;;;;;;10.23;2.15;;;4.20;89.20;;;;;;4759938;29;88468;-80
2023/03/27 03:57:45;;;;;;;12.50;2.30;;;4.30;89.60;;;;;;4767504;29;87258;-80
2023/03/27 04:00:11;;;;;;;7.75;1.80;;;4.20;89.90;;;;;;4776198;29;87763;-78
2023/03/27 04:02:39;;;;;;;9.02;2.17;;;4.20;89.10;;;;;;4764085;29;92290;-81
2023/03/27 04:05:06;;;;;;;7.53;1.88;;;4.30;89.50;;;;;;4777214;29;89377;-80
2023/03/27 04:07:32;;;;;;;11.07;2.30;;;4.30;89.00;;;;;;4781656;29;87729;-82
2023/03/27 04:10:00;;;;;;;10.77;1.88;;;4.30;89.90;;;;;;4766826;29;89776;-79
2023/03/27 04:29:14;;;;;;;9.18;2.58;;;4.30;89.20;;;;;;4778038;29;89085;-79
2023/03/27 04:31:45;;;;;;;9.48;1.42;;;4.30;89.40;;;;;;4780578;29;88062;-80
2023/03/27 04:34:11;;;;;;;7.25;1.95;;;4.30;89.20;;;;;;4778547;29;87409;-79
2023/03/27 04:36:36;;;;;;;10.00;2.20;;;4.30;89.40;;;;;;4779338;29;89156;-82
2023/03/27 04:39:09;;;;;;;9.75;1.98;;;4.30;89.40;;;;;;4768637;29;90158;-82
2023/03/27 04:41:35;;;;;;;5.27;1.90;;;4.30;89.80;;;;;;4779832;29;87408;-82
2023/03/27 04:44:00;;;;;;;16.10;2.42;;;4.30;89.90;;;;;;4779621;29;87828;-81
2023/03/27 04:46:26;;;;;;;10.68;2.00;;;4.30;89.80;;;;;;4775158;29;88856;-79
2023/03/27 04:48:52;;;;;;;9.80;2.13;;;4.30;89.90;;;;;;4766341;29;90322;-81
2023/03/27 04:51:18;;;;;;;9.85;1.63;;;4.30;90.10;;;;;;4775938;29;87594;-80
2023/03/27 04:53:44;;;;;;;16.27;1.98;;;4.30;90.00;;;;;;4766874;29;89348;-78
2023/03/27 04:56:10;;;;;;;15.90;3.25;;;4.30;89.90;;;;;;4767231;29;92539;-80
2023/03/27 04:58:35;;;;;;;9.75;2.15;;;4.30;90.00;;;;;;4768499;29;91975;-79
2023/03/27 05:01:02;;;;;;;8.77;1.70;;;4.30;90.10;;;;;;4778817;29;87835;-78
2023/03/27 05:03:28;;;;;;;12.32;1.95;;;4.30;89.90;;;;;;4782764;29;89624;-83
2023/03/27 05:12:49;;;;;;;8.05;1.80;;;4.30;90.10;;;;;;4779233;29;87904;-80
2023/03/27 05:15:16;;;;;;;11.75;1.70;;;4.30;89.90;;;;;;4775715;29;87920;-81
2023/03/27 05:17:44;;;;;;;8.98;2.35;;;4.30;90.10;;;;;;4767652;29;90250;-80
2023/03/27 05:20:13;;;;;;;8.48;1.58;;;4.30;90.30;;;;;;4777534;29;88333;-79
2023/03/27 05:22:40;;;;;;;8.15;1.83;;;4.30;90.20;;;;;;4766391;29;88205;-79
2023/03/27 05:35:16;;;;;;;6.15;1.50;;;4.20;90.60;;;;;;4777868;29;87587;-80
2023/03/27 05:37:46;;;;;;;7.93;1.50;;;4.20;90.50;;;;;;4776605;29;89197;-81
2023/03/27 05:40:14;;;;;;;7.35;1.85;;;4.10;90.50;;;;;;4780044;29;88606;-82
2023/03/27 05:42:46;;;;;;;7.78;1.50;;;4.10;90.40;;;;;;4767679;29;90239;-79
2023/03/27 05:45:13;;;;;;;6.07;1.73;;;4.10;90.70;;;;;;4775306;29;87730;-82
2023/03/27 05:47:50;;;;;;;9.25;1.50;;;4.10;90.80;;;;;;4777436;29;87857;-79
2023/03/27 05:50:18;;;;;;;7.88;1.70;;;4.10;90.50;;;;;;4783323;29;90871;-79
2023/03/27 05:52:44;;;;;;;6.05;1.40;;;4.10;90.90;;;;;;4777283;29;89177;-82
2023/03/27 05:55:11;;;;;;;4.07;1.80;;;4.10;90.80;;;;;;4783853;29;87617;-79
2023/03/27 05:57:40;;;;;;;8.88;2.15;;;4.10;90.80;;;;;;4781137;29;87585;-79
2023/03/27 06:00:10;;;;;;;9.88;2.63;;;4.10;90.80;;;;;;4776397;29;91622;-81
2023/03/27 06:02:37;;;;;;;6.63;1.35;;;4.20;90.90;;;;;;4785744;29;88484;-79
2023/03/27 06:05:03;;;;;;;11.93;1.50;;;4.20;90.90;;;;;;4786780;29;87680;-82
2023/03/27 06:14:12;;;;;;;4.05;1.83;;;4.20;90.80;;;;;;4785327;29;87899;-79
2023/03/27 06:16:39;;;;;;;5.93;1.50;;;4.20;90.70;;;;;;4784843;29;88340;-85
2023/03/27 06:19:04;;;;;;;10.13;1.88;;;4.30;90.80;;;;;;4770091;29;89575;-82
2023/03/27 06:21:30;;;;;;;5.32;1.20;;;4.30;90.60;;;;;;4768980;29;90361;-84
2023/03/27 06:44:07;;;;;;;9.77;1.40;;;4.40;90.70;;;;;;4784019;29;87733;-82
2023/03/27 06:46:32;;;;;;;4.38;1.88;;;4.50;90.20;;;;;;4783702;29;91011;-83
2023/03/27 06:48:58;;;;;;;5.35;1.20;;;4.50;90.30;;;;;;4787525;29;89776;-80
2023/03/27 06:51:25;;;;;;;8.80;1.40;;;4.50;90.20;;;;;;4786085;29;87845;-79
2023/03/27 06:53:52;;;;;;;5.65;1.80;;;4.60;90.20;;;;;;4785148;29;87323;-80
2023/03/27 06:56:18;;;;;;;5.80;1.70;;;4.60;90.10;;;;;;4785038;29;88567;-80
2023/03/27 06:58:44;;;;;;;6.80;2.30;;;4.60;90.00;;;;;;4777887;29;88261;-78
2023/03/27 07:01:10;;;;;;;8.30;1.95;;;4.60;89.90;;;;;;4766774;29;87643;-78
2023/03/27 07:03:37;;;;;;;7.35;1.60;;;4.60;89.60;;;;;;4782575;29;89473;-81
2023/03/27 07:06:04;;;;;;;4.30;1.67;;;4.60;90.00;;;;;;4777154;29;88923;-79
2023/03/27 07:08:30;;;;;;;10.57;2.97;;;4.60;89.60;;;;;;4773948;29;91330;-79
2023/03/27 07:10:55;;;;;;;8.32;2.50;;;4.60;89.60;;;;;;4776443;29;89064;-81
2023/03/27 07:13:21;;;;;;;6.72;1.95;;;4.60;89.90;;;;;;4776559;29;89026;-79
2023/03/27 07:49:24;;;;;;;9.18;1.70;;;5.80;82.00;;;;;;4778198;29;87330;-81
2023/03/27 07:51:52;;;;;;;7.88;1.40;;;5.90;80.40;;;;;;4781374;29;87936;-79
2023/03/27 07:54:18;;;;;;;6.03;1.10;;;6.00;81.20;;;;;;4771915;29;90674;-79
2023/03/27 07:56:43;;;;;;;4.03;1.05;;;6.10;79.10;;;;;;4783576;29;87570;-80
2023/03/27 07:59:10;;;;;;;6.25;1.17;;;6.10;77.40;;;;;;4789249;29;87261;-79
2023/03/27 08:01:36;;;;;;;4.93;0.95;;;6.10;76.80;;;;;;4789180;29;88854;-78
2023/03/27 08:04:02;;;;;;;5.50;0.60;;;6.00;77.00;;;;;;4773328;29;89930;-78
2023/03/27 08:06:28;;;;;;;2.70;0.55;;;6.00;78.90;;;;;;4787801;29;90118;-78
2023/03/27 08:08:55;;;;;;;6.50;0.68;;;5.90;80.00;;;;;;4792757;29;88252;-79
2023/03/27 08:11:21;;;;;;;2.95;0.40;;;5.80;81.30;;;;;;4791590;29;89291;-80
2023/03/27 08:13:47;;;;;;;1.42;0.40;;;5.60;80.50;;;;;;4781369;29;89846;-80
2023/03/27 08:16:16;;;;;;;6.53;1.00;;;5.60;82.40;;;;;;4791936;29;88039;-80
2023/03/27 08:18:42;;;;;;;1.77;0.60;;;5.70;83.00;;;;;;4790805;29;87140;-79
2023/03/27 08:21:09;;;;;;;2.00;0.52;;;5.80;82.20;;;;;;4789273;29;88827;-79
2023/03/27 08:23:36;;;;;;;4.85;0.82;;;5.90;81.60;;;;;;4763983;29;89439;-78
2023/03/27 08:26:02;;;;;;;4.47;0.75;;;6.00;80.10;;;;;;4779972;29;88750;-79
2023/03/27 08:28:52;;;;;;;2.33;1.25;;;6.10;80.00;;;;;;4810725;29;87203;-82
2023/03/27 08:31:19;;;;;;;3.17;0.68;;;6.20;78.20;;;;;;4729790;29;95723;-82
2023/03/27 08:33:48;;;;;;;3.03;1.08;;;6.30;78.50;;;;;;4723060;29;92665;-81
2023/03/27 08:36:18;;;;;;;5.97;1.05;;;6.40;77.60;;;;;;4723562;29;87747;-82
2023/03/27 08:38:44;;;;;;;5.30;0.95;;;6.50;76.50;;;;;;4734890;29;87085;-83
2023/03/27 08:41:25;;;;;;;5.13;1.02;;;6.70;76.00;;;;;;4727783;29;89841;-83
2023/03/27 08:44:13;;;;;;;5.93;1.17;;;6.80;74.00;;;;;;4719626;29;91190;-81
2023/03/27 08:46:46;;;;;;;9.60;1.20;;;6.90;73.60;;;;;;4724269;29;89208;-79
2023/03/27 08:49:19;;;;;;;12.80;1.20;;;7.10;74.30;;;;;;4715580;29;87810;-79
2023/03/27 08:51:57;;;;;;;8.43;1.30;;;7.30;72.30;;;;;;4722967;29;87457;-79
2023/03/27 08:54:27;;;;;;;3.85;1.50;;;7.60;71.00;;;;;;4715423;29;91130;-80
2023/03/27 08:56:52;;;;;;;7.18;1.48;;;7.80;69.80;;;;;;4722726;29;90035;-78
2023/03/27 08:59:23;;;;;;;6.07;1.08;;;7.90;69.30;;;;;;4720267;29;88886;-78
2023/03/27 09:02:07;;;;;;;8.52;1.45;;;7.80;67.10;;;;;;4720249;29;87832;-78
2023/03/27 09:04:33;;;;;;;6.13;1.50;;;7.70;68.50;;;;;;4721629;29;88750;-79
2023/03/27 09:07:13;;;;;;;7.32;1.02;;;7.70;70.90;;;;;;4721381;29;87875;-78
2023/03/27 09:09:45;;;;;;;6.53;1.27;;;7.70;66.40;;;;;;4721366;29;87789;-78
2023/03/27 09:12:10;;;;;;;7.25;1.30;;;7.60;66.10;;;;;;4720635;29;89843;-78
2023/03/27 09:14:44;;;;;;;3.42;1.25;;;7.40;68.00;;;;;;4732571;29;88961;-80
2023/03/27 09:17:33;;;;;;;9.48;1.30;;;7.30;69.00;;;;;;4758313;29;88015;-81
2023/03/27 09:20:05;;;;;;;4.15;1.17;;;7.20;68.50;;;;;;4765144;29;87681;-78
2023/03/27 09:22:42;;;;;;;4.93;1.23;;;7.10;70.20;;;;;;4758712;29;87119;-80
2023/03/27 09:25:25;;;;;;;9.70;1.67;;;7.10;70.90;;;;;;4735563;29;91190;-79
2023/03/27 09:27:51;;;;;;;3.65;0.82;;;7.00;68.90;;;;;;4754185;29;93163;-80
2023/03/27 09:30:30;;;;;;;6.25;1.33;;;7.00;67.80;;;;;;4737133;29;87182;-78
2023/03/27 09:33:00;;;;;;;4.97;1.42;;;7.10;68.30;;;;;;4736795;29;89559;-80
2023/03/27 09:35:37;;;;;;;9.27;1.23;;;7.30;70.20;;;;;;4752822;29;89725;-78
2023/03/27 09:38:20;;;;;;;9.05;1.50;;;7.50;68.10;;;;;;4752525;29;88327;-78
2023/03/27 09:41:07;;;;;;;9.63;1.73;;;7.80;66.30;;;;;;4753016;29;87721;-78
2023/03/27 09:43:46;;;;;;;4.50;1.30;;;8.00;65.70;;;;;;4741172;29;90505;-78
2023/03/27 11:49:54;;;;;;;6.40;0.75;;;10.40;64.90;;;;;;4785172;29;90468;-78
2023/03/27 11:52:45;;;;;;;5.88;0.95;;;10.20;67.50;;;;;;4701413;29;90333;-79
2023/03/27 11:55:33;;;;;;;9.70;1.40;;;10.10;67.70;;;;;;4714422;29;96612;-78
2023/03/27 12:05:22;;;;;;;4.93;0.80;;;11.10;67.00;;;;;;4706788;29;88038;-78
2023/03/27 12:08:26;;;;;;;5.43;1.05;;;12.00;66.90;;;;;;4706592;29;87865;-79
2023/03/27 12:10:55;;;;;;;4.25;0.80;;;12.70;64.10;;;;;;4707761;29;87050;-78
2023/03/27 12:13:58;;;;;;;3.55;0.60;;;13.10;57.50;;;;;;4705400;29;86897;-79
2023/03/27 12:46:42;;;;;;;2.13;0.65;;;11.40;49.80;;;;;;4790865;29;86948;-78
2023/03/27 12:49:10;;;;;;;2.58;0.50;;;11.10;51.70;;;;;;4781035;29;87804;-78
2023/03/27 12:51:52;;;;;;;3.38;0.60;;;11.40;48.10;;;;;;4779331;29;87460;-79
2023/03/27 12:54:24;;;;;;;1.63;0.50;;;11.50;52.40;;;;;;4779899;29;89138;-78
2023/03/27 12:57:19;;;;;;;3.70;0.60;;;11.50;48.40;;;;;;4777435;29;88165;-78
2023/03/27 12:59:47;;;;;;;0.57;0.30;;;11.60;43.10;;;;;;4770005;29;87506;-78
2023/03/27 13:02:43;;;;;;;5.43;0.50;;;11.80;41.40;;;;;;4776274;29;88471;-79
2023/03/27 13:05:28;;;;;;;3.47;0.50;;;11.90;43.20;;;;;;4780928;29;88039;-78
2023/03/27 13:08:16;;;;;;;2.40;0.40;;;12.10;42.90;;;;;;4775732;29;89131;-79
2023/03/27 13:11:38;;;;;;;2.58;0.50;;;12.10;41.20;;;;;;4775979;29;87153;-78
2023/03/27 13:14:19;;;;;;;6.57;0.77;;;12.40;43.00;;;;;;4680472;30;89134;-79
2023/03/27 13:17:08;;;;;;;3.25;1.02;;;12.10;43.70;;;;;;4687171;30;89652;-79
2023/03/27 13:19:57;;;;;;;2.50;0.70;;;12.00;43.50;;;;;;4687248;30;88330;-79
2023/03/27 13:22:42;;;;;;;2.65;0.50;;;11.40;48.90;;;;;;4679906;30;88531;-79
2023/03/27 13:42:03;;;;;;;3.85;0.50;;;9.60;54.80;;;;;;4687458;29;87768;-79
2023/03/27 13:45:00;;;;;;;3.80;0.70;;;9.60;54.50;;;;;;4727180;29;87787;-80
2023/03/27 13:47:37;;;;;;;6.45;0.80;;;9.60;54.90;;;;;;4781619;29;87432;-79
2023/03/27 14:07:36;;;;;;;4.95;0.80;;;12.40;51.10;;;;;;4776524;29;92036;-79
2023/03/27 14:10:36;;;;;;;3.42;1.15;;;13.40;47.40;;;;;;4767862;29;95951;-79
2023/03/27 14:13:22;;;;;;;5.60;1.20;;;14.20;51.60;;;;;;4776367;29;87724;-79
2023/03/27 14:16:08;;;;;;;2.53;0.75;;;13.90;45.00;;;;;;4777493;29;91947;-79
2023/03/27 14:18:46;;;;;;;6.68;0.70;;;13.40;46.70;;;;;;4776864;29;88440;-78
2023/03/27 14:21:17;;;;;;;3.33;1.00;;;12.70;48.20;;;;;;4776642;29;88466;-78
2023/03/27 14:23:51;;;;;;;5.70;0.70;;;12.60;50.20;;;;;;4777227;29;88792;-79
2023/03/27 14:26:20;;;;;;;3.10;0.98;;;12.40;51.20;;;;;;4776539;29;87655;-79
2023/03/27 14:28:57;;;;;;;4.80;0.82;;;11.60;50.90;;;;;;4778295;29;88650;-79
2023/03/27 14:31:25;;;;;;;1.40;0.70;;;11.10;51.40;;;;;;4775445;29;88513;-79
2023/03/27 14:34:14;;;;;;;3.60;0.75;;;10.80;51.90;;;;;;4767650;29;87977;-79
2023/03/27 14:36:46;;;;;;;2.70;1.00;;;10.60;52.70;;;;;;4739829;29;88719;-79
2023/03/27 14:39:20;;;;;;;5.65;1.15;;;10.70;51.80;;;;;;4742148;29;88325;-81
2023/03/27 14:41:46;;;;;;;2.58;0.60;;;10.60;50.20;;;;;;4764628;29;91788;-81
2023/03/27 14:44:12;;;;;;;2.78;0.82;;;10.60;51.40;;;;;;4748241;29;87591;-78
2023/03/27 14:46:40;;;;;;;3.85;0.85;;;11.00;49.30;;;;;;4739418;29;88030;-79
2023/03/27 14:49:06;;;;;;;3.63;1.10;;;11.60;47.30;;;;;;4739926;29;89607;-78
2023/03/27 14:51:40;;;;;;;3.50;0.80;;;12.50;49.50;;;;;;4737832;29;88309;-79
2023/03/27 14:54:11;;;;;;;4.63;0.70;;;13.00;49.20;;;;;;4728616;29;87644;-78
2023/03/27 15:16:59;;;;;;;1.98;0.50;;;13.60;41.50;;;;;;4755718;29;87465;-78
2023/03/27 15:19:29;;;;;;;7.15;0.77;;;13.50;39.40;;;;;;4756583;29;88649;-78
2023/03/27 15:22:08;;;;;;;2.67;0.60;;;13.60;42.20;;;;;;4759083;29;88637;-78
2023/03/27 15:41:41;;;;;;;2.75;0.50;;;16.00;39.80;;;;;;4759220;29;86948;-78
2023/03/27 15:44:16;;;;;;;1.98;0.40;;;15.90;37.00;;;;;;4759320;29;87099;-79
2023/03/27 15:46:54;;;;;;;2.47;0.50;;;15.80;37.80;;;;;;4759373;29;87624;-79
2023/03/27 15:49:24;;;;;;;1.17;0.57;;;15.50;38.80;;;;;;4763957;29;92346;-79
2023/03/27 15:51:50;;;;;;;2.67;0.50;;;15.40;38.50;;;;;;4757064;29;92602;-78
2023/03/27 15:54:28;;;;;;;1.73;0.55;;;15.30;38.20;;;;;;4750379;29;95116;-78
2023/03/27 15:56:56;;;;;;;2.92;0.70;;;15.10;39.20;;;;;;4759911;29;87462;-78
2023/03/27 15:59:24;;;;;;;3.25;0.82;;;14.40;39.70;;;;;;4759284;29;88015;-78
2023/03/27 16:08:39;;;;;;;7.85;1.02;;;12.70;43.60;;;;;;4761273;29;87162;-78
2023/03/27 16:11:06;;;;;;;8.55;1.48;;;12.30;44.60;;;;;;4760055;29;88631;-78
2023/03/27 16:13:40;;;;;;;9.38;2.28;;;12.60;45.60;;;;;;4759567;29;87664;-79
2023/03/27 16:16:25;;;;;;;5.55;1.15;;;13.50;44.70;;;;;;4762862;29;87999;-78
2023/03/27 16:18:52;;;;;;;3.33;0.80;;;14.10;42.10;;;;;;4760333;29;91880;-77
2023/03/27 16:21:23;;;;;;;2.30;0.50;;;14.50;42.00;;;;;;4761313;29;89431;-78
2023/03/27 16:23:49;;;;;;;2.95;0.65;;;14.50;40.50;;;;;;4758203;29;88431;-78
2023/03/27 16:26:20;;;;;;;6.85;1.35;;;14.40;40.20;;;;;;4750140;29;87787;-78
2023/03/27 16:28:46;;;;;;;4.28;0.85;;;14.20;41.10;;;;;;4757895;29;87612;-78
2023/03/27 16:31:17;;;;;;;5.43;1.13;;;13.80;42.30;;;;;;4760518;29;89270;-78
2023/03/27 16:33:44;;;;;;;6.55;1.10;;;13.10;44.20;;;;;;4760551;29;88476;-78
2023/03/27 16:36:15;;;;;;;9.05;1.05;;;12.10;46.70;;;;;;4765311;29;87310;-78
2023/03/27 16:38:50;;;;;;;8.95;1.23;;;11.40;48.50;;;;;;4764973;29;90874;-78
2023/03/27 16:41:17;;;;;;;5.18;0.70;;;12.00;46.30;;;;;;4760022;29;89074;-78
2023/03/27 16:43:44;;;;;;;2.33;0.45;;;12.90;43.30;;;;;;4760952;29;87586;-78
2023/03/27 16:46:22;;;;;;;4.63;0.70;;;12.80;42.50;;;;;;4762243;29;87493;-78
2023/03/27 16:48:49;;;;;;;3.55;0.93;;;12.90;41.60;;;;;;4769716;29;92039;-78
2023/03/27 16:51:16;;;;;;;2.08;0.77;;;12.40;42.00;;;;;;4784583;29;91453;-78
2023/03/27 17:27:20;;;;;;;3.50;0.90;;;8.50;56.70;;;;;;4777483;29;87546;-78
2023/03/27 17:29:45;;;;;;;5.07;0.82;;;8.20;58.60;;;;;;4777712;29;88094;-78
2023/03/27 17:32:11;;;;;;;5.00;1.50;;;8.00;58.50;;;;;;4778399;29;88070;-78
2023/03/27 17:34:36;;;;;;;5.47;1.00;;;7.90;59.10;;;;;;4780203;29;87542;-77
2023/03/27 17:37:02;;;;;;;9.15;1.95;;;7.80;59.30;;;;;;4779037;29;87967;-77
2023/03/27 17:39:28;;;;;;;6.32;1.45;;;7.70;59.10;;;;;;4782108;29;89600;-78
2023/03/27 17:41:53;;;;;;;7.05;0.95;;;7.60;59.10;;;;;;4777860;29;89037;-77
2023/03/27 17:44:19;;;;;;;5.40;1.20;;;7.50;59.20;;;;;;4778644;29;87834;-77
2023/03/27 17:55:15;;;;;;;10.23;1.35;;;7.20;59.70;;;;;;4770186;29;88940;-78
2023/03/27 17:57:40;;;;;;;6.40;1.00;;;7.00;61.60;;;;;;4759914;29;87893;-77
2023/03/27 18:00:08;;;;;;;6.18;1.17;;;6.90;60.70;;;;;;4758804;29;87464;-78
2023/03/27 18:02:34;;;;;;;5.10;0.85;;;6.80;61.20;;;;;;4766605;29;89936;-78
2023/03/27 18:05:00;;;;;;;6.43;0.95;;;6.70;62.50;;;;;;4761956;29;88327;-78
2023/03/27 18:10:54;;;;;;;2.35;0.70;;;6.50;62.80;;;;;;4759613;29;87265;-77
2023/03/27 18:13:20;;;;;;;4.38;0.73;;;6.40;60.00;;;;;;4761300;29;89095;-77
2023/03/27 18:15:45;;;;;;;11.68;1.88;;;6.30;60.00;;;;;;4757820;29;88608;-78
2023/03/27 18:18:11;;;;;;;7.07;0.73;;;6.20;60.80;;;;;;4758893;29;87870;-79
2023/03/27 18:20:37;;;;;;;6.70;0.90;;;6.10;60.80;;;;;;4758670;29;88554;-78
2023/03/27 18:36:51;;;;;;;7.22;1.95;;;5.70;61.70;;;;;;4759272;29;88798;-78
2023/03/27 18:39:18;;;;;;;7.13;1.48;;;5.60;63.90;;;;;;4758866;29;91032;-78
2023/03/27 18:41:43;;;;;;;9.75;1.63;;;5.60;63.40;;;;;;4759902;29;87585;-79
2023/03/27 18:44:12;;;;;;;10.00;1.55;;;5.50;63.80;;;;;;4759183;29;87606;-80
2023/03/27 18:46:39;;;;;;;6.38;1.90;;;5.50;64.40;;;;;;4761377;29;88548;-79
2023/03/27 19:11:31;;;;;;;5.18;1.10;;;5.00;67.20;;;;;;4772517;29;87626;-79
2023/03/27 19:13:57;;;;;;;8.40;2.88;;;4.90;67.90;;;;;;4773881;29;90134;-78
2023/03/27 19:16:23;;;;;;;6.30;1.25;;;4.90;68.10;;;;;;4783172;29;90251;-80
2023/03/27 19:18:48;;;;;;;7.35;1.33;;;4.80;68.90;;;;;;4776738;29;87664;-81
2023/03/27 19:21:14;;;;;;;11.90;1.55;;;4.80;68.80;;;;;;4767811;29;89558;-78
2023/03/27 19:23:40;;;;;;;6.55;1.20;;;4.70;69.30;;;;;;4777836;29;88705;-79
2023/03/27 19:26:08;;;;;;;7.30;1.70;;;4.70;70.30;;;;;;4767810;29;90041;-79
2023/03/27 19:45:23;;;;;;;9.63;2.30;;;4.20;72.10;;;;;;4780304;29;87563;-81
2023/03/27 19:47:49;;;;;;;7.22;2.47;;;4.20;71.80;;;;;;4779360;29;88645;-83
2023/03/27 19:50:15;;;;;;;12.52;2.50;;;4.20;72.60;;;;;;4770926;29;89945;-79
2023/03/27 19:52:43;;;;;;;5.72;1.80;;;4.20;72.30;;;;;;4780386;29;87575;-79
2023/03/27 20:01:53;;;;;;;7.43;2.35;;;4.00;72.10;;;;;;4777401;29;87452;-79
2023/03/27 20:04:19;;;;;;;9.63;2.00;;;4.00;72.10;;;;;;4771551;29;88307;-79
2023/03/27 20:06:45;;;;;;;11.25;1.67;;;4.00;72.60;;;;;;4778727;29;87398;-81
2023/03/27 20:09:12;;;;;;;5.05;1.80;;;3.90;72.80;;;;;;4786121;29;89952;-81
2023/03/27 20:11:40;;;;;;;12.65;3.00;;;3.90;72.90;;;;;;4777435;29;88776;-80
2023/03/27 20:14:08;;;;;;;11.20;2.70;;;3.90;73.10;;;;;;4760447;29;87019;-79
2023/03/27 20:16:34;;;;;;;8.35;3.38;;;3.80;74.00;;;;;;4762796;29;90792;-78
2023/03/27 20:19:03;;;;;;;11.10;3.85;;;3.70;74.10;;;;;;4760077;29;88569;-82
2023/03/27 20:21:46;;;;;;;13.10;3.58;;;3.70;74.50;;;;;;4750173;29;90305;-83
2023/03/27 20:24:15;;;;;;;12.85;3.28;;;3.60;74.70;;;;;;4748584;29;87719;-78
2023/03/27 20:26:41;;;;;;;10.98;3.50;;;3.60;74.90;;;;;;4759997;29;87825;-81
2023/03/27 20:29:12;;;;;;;8.65;2.10;;;3.50;75.40;;;;;;4762680;29;88776;-79
2023/03/27 20:58:36;;;;;;;10.40;3.55;;;2.80;77.80;;;;;;4761118;29;90513;-79
2023/03/27 21:01:05;;;;;;;6.85;2.70;;;2.80;79.40;;;;;;4750288;29;88806;-81
2023/03/27 21:03:41;;;;;;;8.20;2.83;;;2.80;80.10;;;;;;4761285;29;88154;-82
2023/03/27 21:06:10;;;;;;;8.30;2.63;;;2.70;80.30;;;;;;4757923;29;90538;-80
2023/03/27 21:08:36;;;;;;;10.70;3.00;;;2.60;79.70;;;;;;4759723;29;94282;-79
2023/03/27 21:11:03;;;;;;;10.00;2.42;;;2.60;79.60;;;;;;4765192;29;87101;-80
2023/03/27 21:13:29;;;;;;;8.57;2.80;;;2.50;80.00;;;;;;4778598;29;88502;-80
2023/03/27 21:15:56;;;;;;;14.13;3.55;;;2.40;79.90;;;;;;4778135;29;88768;-80
2023/03/27 21:18:23;;;;;;;11.63;4.05;;;2.40;80.10;;;;;;4777847;29;91126;-81
2023/03/27 21:20:48;;;;;;;9.32;3.80;;;2.40;80.70;;;;;;4777701;29;87539;-79
2023/03/27 21:53:31;;;;;;;9.32;3.10;;;2.00;81.90;;;;;;4777322;29;87890;-78
2023/03/27 21:55:56;;;;;;;8.52;3.15;;;1.90;82.10;;;;;;4784024;29;90102;-78
2023/03/27 21:58:23;;;;;;;17.75;3.33;;;1.90;82.40;;;;;;4777283;29;88390;-78
2023/03/27 22:00:49;;;;;;;8.73;2.92;;;1.80;81.90;;;;;;4777324;29;87623;-79
2023/03/27 22:33:29;;;;;;;13.32;3.33;;;1.40;86.40;;;;;;4770286;29;88472;-79
2023/03/27 22:35:54;;;;;;;7.72;2.97;;;1.30;87.10;;;;;;4774615;29;91449;-78
2023/03/27 22:38:20;;;;;;;16.02;3.05;;;1.20;87.40;;;;;;4768641;29;87725;-80
2023/03/27 22:40:46;;;;;;;13.13;3.13;;;1.20;87.80;;;;;;4775837;29;93719;-78
2023/03/27 22:43:11;;;;;;;10.50;3.58;;;1.10;87.90;;;;;;4777231;29;88778;-78
2023/03/27 22:45:37;;;;;;;9.20;2.90;;;1.10;88.70;;;;;;4776239;29;87988;-78
2023/03/27 22:58:08;;;;;;;13.60;3.10;;;0.90;90.00;;;;;;4776756;29;91667;-80
2023/03/27 23:00:34;;;;;;;12.13;2.72;;;0.90;89.80;;;;;;4776647;29;88587;-82
2023/03/27 23:03:00;;;;;;;11.40;2.78;;;0.80;90.10;;;;;;4783906;29;89179;-78
2023/03/27 23:05:26;;;;;;;4.90;2.33;;;0.80;89.40;;;;;;4777691;29;88228;-78
2023/03/27 23:07:51;;;;;;;17.17;3.20;;;0.80;89.90;;;;;;4768575;29;91933;-78
2023/03/27 23:20:28;;;;;;;11.10;3.45;;;0.60;90.30;;;;;;4779908;29;87041;-79
2023/03/27 23:22:54;;;;;;;8.45;2.58;;;0.50;90.30;;;;;;4780348;29;87692;-78
2023/03/27 23:25:20;;;;;;;10.63;3.20;;;0.50;90.50;;;;;;4779277;29;88900;-79
2023/03/27 23:27:45;;;;;;;11.43;2.45;;;0.40;90.30;;;;;;4786142;29;90673;-79
2023/03/27 23:30:12;;;;;;;9.40;2.65;;;0.40;90.80;;;;;;4780374;29;89267;-78
2023/03/27 23:53:12;;;;;;;20.50;6.85;;;0.10;91.30;;;;;;4772094;29;91243;-78
2023/03/27 23:55:38;;;;;;;19.65;7.07;;;0.00;91.50;;;;;;4777069;29;93365;-78
2023/03/27 23:58:04;;;;;;;17.42;5.88;;;0.00;91.60;;;;;;4769630;29;90177;-80
